sensor_id;sensor_type;location;lat;lon;timestamp;temperature;humidity
16968;DHT22;64862;54.398;10.126;2023-02-28T00:08:48;5.80;99.90
16968;DHT22;64862;54.398;10.126;2023-02-28T00:18:51;5.80;99.90
16968;DHT22;64862;54.398;10.126;2023-02-28T00:28:53;5.70;99.90
16968;DHT22;64862;54.398;10.126;2023-02-28T00:38:58;5.80;99.90
16968;DHT22;64862;54.398;10.126;2023-02-28T00:49:02;5.80;99.90
16968;DHT22;64862;54.398;10.126;2023-02-28T00:59:06;5.60;99.90
16968;DHT22;64862;54.398;10.126;2023-02-28T01:09:08;5.50;99.90
16968;DHT22;64862;54.398;10.126;2023-02-28T01:19:11;5.50;99.90
16968;DHT22;64862;54.398;10.126;2023-02-28T01:29:13;5.60;99.90
16968;DHT22;64862;54.398;10.126;2023-02-28T01:39:17;5.50;99.90
16968;DHT22;64862;54.398;10.126;2023-02-28T01:49:20;5.50;99.90
16968;DHT22;64862;54.398;10.126;2023-02-28T01:59:28;5.50;99.90
16968;DHT22;64862;54.398;10.126;2023-02-28T02:09:31;5.50;99.90
16968;DHT22;64862;54.398;10.126;2023-02-28T02:20:06;5.50;99.90
16968;DHT22;64862;54.398;10.126;2023-02-28T02:30:43;5.40;99.90
16968;DHT22;64862;54.398;10.126;2023-02-28T02:41:00;5.40;99.90
16968;DHT22;64862;54.398;10.126;2023-02-28T02:51:09;5.30;99.90
16968;DHT22;64862;54.398;10.126;2023-02-28T03:01:19;5.00;99.90
16968;DHT22;64862;54.398;10.126;2023-02-28T03:11:29;4.80;99.90
16968;DHT22;64862;54.398;10.126;2023-02-28T03:21:37;4.70;99.90
16968;DHT22;64862;54.398;10.126;2023-02-28T03:31:47;4.10;99.90
16968;DHT22;64862;54.398;10.126;2023-02-28T03:41:54;3.70;99.90
16968;DHT22;64862;54.398;10.126;2023-02-28T03:52:00;3.30;99.90
16968;DHT22;64862;54.398;10.126;2023-02-28T04:02:05;3.00;99.90
16968;DHT22;64862;54.398;10.126;2023-02-28T04:12:08;3.10;99.90
16968;DHT22;64862;54.398;10.126;2023-02-28T04:22:11;2.80;99.90
16968;DHT22;64862;54.398;10.126;2023-02-28T04:32:15;2.50;99.90
16968;DHT22;64862;54.398;10.126;2023-02-28T04:42:18;2.50;99.90
16968;DHT22;64862;54.398;10.126;2023-02-28T04:52:20;2.30;99.90
16968;DHT22;64862;54.398;10.126;2023-02-28T05:02:23;2.10;99.90
16968;DHT22;64862;54.398;10.126;2023-02-28T05:12:25;2.00;99.90
16968;DHT22;64862;54.398;10.126;2023-02-28T05:22:29;2.00;99.90
16968;DHT22;64862;54.398;10.126;2023-02-28T05:32:31;1.90;99.90
16968;DHT22;64862;54.398;10.126;2023-02-28T05:42:34;1.90;99.90
16968;DHT22;64862;54.398;10.126;2023-02-28T05:52:36;1.80;99.90
16968;DHT22;64862;54.398;10.126;2023-02-28T06:02:40;1.70;99.90
16968;DHT22;64862;54.398;10.126;2023-02-28T06:12:42;1.70;99.90
16968;DHT22;64862;54.398;10.126;2023-02-28T06:22:45;1.60;99.90
16968;DHT22;64862;54.398;10.126;2023-02-28T06:32:47;1.50;99.90
16968;DHT22;64862;54.398;10.126;2023-02-28T06:42:51;1.60;99.90
16968;DHT22;64862;54.398;10.126;2023-02-28T06:52:53;1.90;99.90
16968;DHT22;64862;54.398;10.126;2023-02-28T07:02:57;1.90;99.90
16968;DHT22;64862;54.398;10.126;2023-02-28T07:12:59;1.90;99.90
16968;DHT22;64862;54.398;10.126;2023-02-28T07:23:02;2.10;99.90
16968;DHT22;64862;54.398;10.126;2023-02-28T07:33:04;4.90;99.90
16968;DHT22;64862;54.398;10.126;2023-02-28T07:43:08;9.10;99.90
16968;DHT22;64862;54.398;10.126;2023-02-28T07:53:10;12.00;99.90
16968;DHT22;64862;54.398;10.126;2023-02-28T08:03:13;13.30;99.90
16968;DHT22;64862;54.398;10.126;2023-02-28T08:13:15;15.50;99.90
16968;DHT22;64862;54.398;10.126;2023-02-28T08:23:18;16.70;99.90
16968;DHT22;64862;54.398;10.126;2023-02-28T08:33:20;17.40;99.90
16968;DHT22;64862;54.398;10.126;2023-02-28T08:43:24;18.20;99.90
16968;DHT22;64862;54.398;10.126;2023-02-28T08:53:27;17.60;99.90
16968;DHT22;64862;54.398;10.126;2023-02-28T09:03:30;19.60;99.90
16968;DHT22;64862;54.398;10.126;2023-02-28T09:13:33;19.20;99.90
16968;DHT22;64862;54.398;10.126;2023-02-28T09:23:36;20.20;99.90
16968;DHT22;64862;54.398;10.126;2023-02-28T09:33:39;18.70;99.90
16968;DHT22;64862;54.398;10.126;2023-02-28T09:43:45;21.20;99.90
16968;DHT22;64862;54.398;10.126;2023-02-28T09:53:48;20.60;99.90
16968;DHT22;64862;54.398;10.126;2023-02-28T10:03:56;20.30;99.90
16968;DHT22;64862;54.398;10.126;2023-02-28T10:14:01;20.70;99.90
16968;DHT22;64862;54.398;10.126;2023-02-28T10:24:16;21.10;99.90
16968;DHT22;64862;54.398;10.126;2023-02-28T10:34:20;20.90;99.90
16968;DHT22;64862;54.398;10.126;2023-02-28T10:44:24;21.40;99.90
16968;DHT22;64862;54.398;10.126;2023-02-28T10:54:30;19.80;99.90
16968;DHT22;64862;54.398;10.126;2023-02-28T11:04:36;21.30;99.90
16968;DHT22;64862;54.398;10.126;2023-02-28T11:14:48;21.90;99.90
16968;DHT22;64862;54.398;10.126;2023-02-28T11:24:53;20.70;99.60
16968;DHT22;64862;54.398;10.126;2023-02-28T11:35:04;16.00;99.90
16968;DHT22;64862;54.398;10.126;2023-02-28T11:45:28;14.00;99.90
16968;DHT22;64862;54.398;10.126;2023-02-28T11:55:38;12.90;99.90
16968;DHT22;64862;54.398;10.126;2023-02-28T12:05:45;12.20;99.90
16968;DHT22;64862;54.398;10.126;2023-02-28T12:15:51;11.50;99.90
16968;DHT22;64862;54.398;10.126;2023-02-28T12:26:09;11.40;99.90
16968;DHT22;64862;54.398;10.126;2023-02-28T12:36:18;10.90;99.90
16968;DHT22;64862;54.398;10.126;2023-02-28T12:46:27;10.90;99.90
16968;DHT22;64862;54.398;10.126;2023-02-28T12:56:38;11.20;99.90
16968;DHT22;64862;54.398;10.126;2023-02-28T13:06:58;10.40;99.90
16968;DHT22;64862;54.398;10.126;2023-02-28T13:17:10;10.40;99.90
16968;DHT22;64862;54.398;10.126;2023-02-28T13:27:33;10.00;99.90
16968;DHT22;64862;54.398;10.126;2023-02-28T13:37:42;9.80;99.90
16968;DHT22;64862;54.398;10.126;2023-02-28T13:47:50;9.80;99.90
16968;DHT22;64862;54.398;10.126;2023-02-28T13:58:18;9.90;99.90
16968;DHT22;64862;54.398;10.126;2023-02-28T14:08:25;9.50;99.90
16968;DHT22;64862;54.398;10.126;2023-02-28T14:18:30;9.50;99.90
16968;DHT22;64862;54.398;10.126;2023-02-28T14:28:47;9.50;99.90
16968;DHT22;64862;54.398;10.126;2023-02-28T14:38:52;9.80;99.90
16968;DHT22;64862;54.398;10.126;2023-02-28T14:48:58;9.60;99.90
16968;DHT22;64862;54.398;10.126;2023-02-28T14:59:00;9.50;99.90
16968;DHT22;64862;54.398;10.126;2023-02-28T15:09:14;9.60;99.90
16968;DHT22;64862;54.398;10.126;2023-02-28T15:19:20;9.30;99.90
16968;DHT22;64862;54.398;10.126;2023-02-28T15:29:27;9.40;99.90
16968;DHT22;64862;54.398;10.126;2023-02-28T15:39:31;9.40;99.90
16968;DHT22;64862;54.398;10.126;2023-02-28T15:49:47;9.20;99.90
16968;DHT22;64862;54.398;10.126;2023-02-28T15:59:52;9.00;99.90
16968;DHT22;64862;54.398;10.126;2023-02-28T16:09:57;9.00;99.90
16968;DHT22;64862;54.398;10.126;2023-02-28T16:19:59;8.70;99.90
16968;DHT22;64862;54.398;10.126;2023-02-28T16:30:04;8.30;99.90
16968;DHT22;64862;54.398;10.126;2023-02-28T16:40:09;8.10;99.90
16968;DHT22;64862;54.398;10.126;2023-02-28T16:50:20;7.80;99.90
16968;DHT22;64862;54.398;10.126;2023-02-28T17:00:23;7.40;99.90
16968;DHT22;64862;54.398;10.126;2023-02-28T17:10:29;7.00;99.90
16968;DHT22;64862;54.398;10.126;2023-02-28T17:20:31;6.60;99.90
16968;DHT22;64862;54.398;10.126;2023-02-28T17:30:34;6.20;99.90
16968;DHT22;64862;54.398;10.126;2023-02-28T17:40:36;5.90;99.90
16968;DHT22;64862;54.398;10.126;2023-02-28T17:50:40;5.70;99.90
16968;DHT22;64862;54.398;10.126;2023-02-28T18:00:42;5.50;99.90
16968;DHT22;64862;54.398;10.126;2023-02-28T18:10:45;5.30;99.90
16968;DHT22;64862;54.398;10.126;2023-02-28T18:20:47;5.10;99.90
16968;DHT22;64862;54.398;10.126;2023-02-28T18:30:51;5.00;99.90
16968;DHT22;64862;54.398;10.126;2023-02-28T18:40:55;4.90;99.90
16968;DHT22;64862;54.398;10.126;2023-02-28T18:51:05;4.70;99.90
16968;DHT22;64862;54.398;10.126;2023-02-28T19:01:14;4.60;99.90
16968;DHT22;64862;54.398;10.126;2023-02-28T19:11:18;4.50;99.90
16968;DHT22;64862;54.398;10.126;2023-02-28T19:21:21;4.30;99.90
16968;DHT22;64862;54.398;10.126;2023-02-28T19:31:25;4.30;99.90
16968;DHT22;64862;54.398;10.126;2023-02-28T19:41:27;4.10;99.90
16968;DHT22;64862;54.398;10.126;2023-02-28T19:51:30;4.00;99.90
16968;DHT22;64862;54.398;10.126;2023-02-28T20:01:33;3.90;99.90
16968;DHT22;64862;54.398;10.126;2023-02-28T20:11:37;3.90;99.90
16968;DHT22;64862;54.398;10.126;2023-02-28T20:21:39;3.80;99.90
16968;DHT22;64862;54.398;10.126;2023-02-28T20:31:44;3.60;99.90
16968;DHT22;64862;54.398;10.126;2023-02-28T20:41:46;3.50;99.90
16968;DHT22;64862;54.398;10.126;2023-02-28T20:51:50;3.50;99.90
16968;DHT22;64862;54.398;10.126;2023-02-28T21:01:52;3.30;99.90
16968;DHT22;64862;54.398;10.126;2023-02-28T21:11:57;3.50;99.90
16968;DHT22;64862;54.398;10.126;2023-02-28T21:21:59;3.50;99.90
16968;DHT22;64862;54.398;10.126;2023-02-28T21:32:02;3.50;99.90
16968;DHT22;64862;54.398;10.126;2023-02-28T21:42:04;3.70;99.90
16968;DHT22;64862;54.398;10.126;2023-02-28T21:52:10;3.60;99.90
16968;DHT22;64862;54.398;10.126;2023-02-28T22:02:12;3.50;99.90
16968;DHT22;64862;54.398;10.126;2023-02-28T22:12:15;3.50;99.90
16968;DHT22;64862;54.398;10.126;2023-02-28T22:22:17;3.60;99.90
16968;DHT22;64862;54.398;10.126;2023-02-28T22:32:21;3.70;99.90
16968;DHT22;64862;54.398;10.126;2023-02-28T22:42:23;3.60;99.90
16968;DHT22;64862;54.398;10.126;2023-02-28T22:52:26;3.50;99.90
16968;DHT22;64862;54.398;10.126;2023-02-28T23:02:28;3.60;99.90
16968;DHT22;64862;54.398;10.126;2023-02-28T23:12:31;3.40;99.90
16968;DHT22;64862;54.398;10.126;2023-02-28T23:22:33;3.10;99.90
16968;DHT22;64862;54.398;10.126;2023-02-28T23:32:37;3.00;99.90
16968;DHT22;64862;54.398;10.126;2023-02-28T23:42:39;3.00;99.90
16968;DHT22;64862;54.398;10.126;2023-02-28T23:52:43;3.00;99.90
